createdAt,value
2018-08-04T00:01:07.010Z,25.00
2018-08-04T00:03:47.714Z,25.00
2018-08-04T00:06:30.368Z,24.90
2018-08-04T00:09:13.169Z,24.80
2018-08-04T00:11:53.745Z,24.80
2018-08-04T00:14:34.678Z,24.80
2018-08-04T00:17:15.182Z,24.80
2018-08-04T00:19:55.978Z,24.90
2018-08-04T00:22:37.568Z,24.90
2018-08-04T00:25:18.265Z,24.90
2018-08-04T00:27:58.756Z,24.80
2018-08-04T00:30:39.667Z,24.70
2018-08-04T00:33:20.901Z,24.70
2018-08-04T00:36:02.046Z,24.60
2018-08-04T00:38:42.518Z,24.60
2018-08-04T00:41:22.945Z,24.60
2018-08-04T00:46:44.773Z,24.60
2018-08-04T00:49:25.377Z,24.60
2018-08-04T00:52:06.977Z,24.60
2018-08-04T00:54:48.297Z,24.50
2018-08-04T00:57:32.753Z,24.40
2018-08-04T01:00:14.033Z,24.40
2018-08-04T01:02:54.914Z,24.40
2018-08-04T01:05:36.112Z,24.30
2018-08-04T01:08:17.245Z,24.30
2018-08-04T01:10:58.273Z,24.30
2018-08-04T01:13:39.129Z,24.30
2018-08-04T01:16:19.737Z,24.20
2018-08-04T01:19:00.723Z,24.20
2018-08-04T01:21:41.889Z,24.20
2018-08-04T01:24:22.434Z,24.20
2018-08-04T01:27:03.629Z,24.20
2018-08-04T01:29:44.048Z,24.20
2018-08-04T01:32:24.865Z,24.20
2018-08-04T01:35:05.862Z,24.20
2018-08-04T01:37:46.578Z,24.30
2018-08-04T01:40:27.829Z,24.30
2018-08-04T01:43:09.006Z,24.30
2018-08-04T01:45:49.866Z,24.30
2018-08-04T01:48:30.333Z,24.30
2018-08-04T01:51:11.112Z,24.20
2018-08-04T01:53:51.883Z,24.10
2018-08-04T01:56:32.764Z,24.00
2018-08-04T01:59:13.782Z,23.90
2018-08-04T02:01:54.649Z,23.90
2018-08-04T02:04:35.174Z,23.90
2018-08-04T02:07:16.212Z,23.80
2018-08-04T02:09:57.190Z,23.80
2018-08-04T02:12:38.062Z,23.60
2018-08-04T02:15:19.765Z,23.60
2018-08-04T02:18:00.894Z,23.50
2018-08-04T02:20:41.721Z,23.50
2018-08-04T02:23:22.512Z,23.60
2018-08-04T02:26:03.214Z,23.60
2018-08-04T02:28:44.453Z,23.50
2018-08-04T02:31:24.979Z,23.30
2018-08-04T02:34:05.479Z,23.40
2018-08-04T02:36:45.974Z,23.40
2018-08-04T02:39:26.833Z,23.30
2018-08-04T02:42:07.277Z,23.20
2018-08-04T02:44:48.414Z,23.10
2018-08-04T02:47:28.809Z,23.00
2018-08-04T02:50:10.065Z,23.00
2018-08-04T02:52:50.937Z,22.90
2018-08-04T02:55:31.441Z,22.90
2018-08-04T02:58:12.504Z,22.90
2018-08-04T03:00:53.767Z,22.80
2018-08-04T03:03:34.911Z,22.90
2018-08-04T03:06:15.583Z,22.90
2018-08-04T03:08:56.500Z,22.90
2018-08-04T03:11:37.074Z,22.90
2018-08-04T03:14:17.894Z,22.90
2018-08-04T03:16:58.647Z,22.80
2018-08-04T03:19:39.705Z,22.80
2018-08-04T03:22:20.522Z,22.80
2018-08-04T03:25:01.460Z,22.70
2018-08-04T03:27:41.806Z,22.70
2018-08-04T03:30:23.653Z,22.80
2018-08-04T03:33:04.690Z,22.70
2018-08-04T03:35:45.577Z,22.70
2018-08-04T03:38:26.800Z,22.70
2018-08-04T03:41:07.357Z,22.70
2018-08-04T03:43:48.204Z,22.60
2018-08-04T03:46:28.960Z,22.60
2018-08-04T03:49:09.985Z,22.60
2018-08-04T03:57:11.511Z,22.60
2018-08-04T03:59:52.365Z,22.50
2018-08-04T04:02:33.584Z,22.50
2018-08-04T04:05:14.529Z,22.50
2018-08-04T04:07:54.990Z,22.50
2018-08-04T04:10:36.280Z,22.50
2018-08-04T04:13:24.300Z,22.50
2018-08-04T04:16:05.488Z,22.60
2018-08-04T04:18:46.697Z,22.60
2018-08-04T04:21:28.324Z,22.60
2018-08-04T04:24:08.908Z,22.70
2018-08-04T04:26:49.656Z,22.80
2018-08-04T04:29:30.185Z,22.80
2018-08-04T04:32:10.749Z,22.70
2018-08-04T04:34:52.029Z,22.70
2018-08-04T04:37:32.590Z,22.80
2018-08-04T04:42:53.682Z,23.00
2018-08-04T04:45:34.493Z,23.00
2018-08-04T04:48:15.322Z,23.00
2018-08-04T04:50:56.262Z,23.00
2018-08-04T04:53:37.176Z,23.00
2018-08-04T04:56:18.103Z,23.20
2018-08-04T04:58:58.531Z,23.50
2018-08-04T05:01:39.949Z,24.10
2018-08-04T05:04:21.032Z,24.50
2018-08-04T05:07:02.168Z,24.30
2018-08-04T05:09:42.901Z,24.10
2018-08-04T05:12:23.771Z,24.00
2018-08-04T05:15:05.337Z,23.90
2018-08-04T05:17:46.210Z,23.70
2018-08-04T05:20:27.181Z,23.80
2018-08-04T05:23:08.017Z,23.90
2018-08-04T05:25:50.101Z,23.90
2018-08-04T05:28:30.955Z,24.00
2018-08-04T05:31:12.127Z,24.00
2018-08-04T05:33:53.759Z,24.00
2018-08-04T05:36:34.182Z,24.00
2018-08-04T05:39:14.924Z,24.00
2018-08-04T05:41:55.470Z,24.10
2018-08-04T05:44:36.354Z,24.20
2018-08-04T05:47:17.500Z,24.50
2018-08-04T05:49:58.697Z,24.70
2018-08-04T05:52:39.629Z,25.00
2018-08-04T05:55:20.346Z,25.00
2018-08-04T05:58:01.540Z,24.90
2018-08-04T06:00:42.743Z,24.90
2018-08-04T06:03:23.664Z,24.90
2018-08-04T06:06:05.045Z,25.00
2018-08-04T06:08:46.198Z,25.00
2018-08-04T06:11:27.029Z,25.20
2018-08-04T06:14:07.457Z,25.20
2018-08-04T06:16:48.903Z,25.30
2018-08-04T06:19:30.431Z,25.40
2018-08-04T06:22:10.807Z,25.40
2018-08-04T06:24:52.240Z,25.50
2018-08-04T06:27:32.935Z,25.90
2018-08-04T06:30:14.156Z,25.90
2018-08-04T06:32:55.063Z,26.00
2018-08-04T06:35:35.629Z,26.30
2018-08-04T06:38:18.515Z,26.70
2018-08-04T06:41:00.466Z,26.90
2018-08-04T06:43:41.349Z,26.90
2018-08-04T06:46:21.782Z,27.00
2018-08-04T06:49:02.792Z,27.20
2018-08-04T06:51:43.933Z,27.30
2018-08-04T06:54:25.244Z,27.40
2018-08-04T06:57:05.850Z,27.50
2018-08-04T06:59:46.596Z,27.60
2018-08-04T07:02:27.504Z,27.60
2018-08-04T07:05:08.768Z,27.80
2018-08-04T07:07:49.672Z,28.20
2018-08-04T07:10:30.822Z,28.20
2018-08-04T07:13:11.633Z,28.00
2018-08-04T07:15:52.871Z,28.10
2018-08-04T07:18:33.647Z,28.20
2018-08-04T07:21:14.753Z,28.10
2018-08-04T07:23:55.580Z,28.50
2018-08-04T07:26:37.659Z,28.80
2018-08-04T07:29:18.467Z,28.80
2018-08-04T07:31:59.712Z,28.90
2018-08-04T07:34:40.893Z,29.40
2018-08-04T07:37:21.885Z,29.60
2018-08-04T07:40:03.001Z,30.00
2018-08-04T07:42:43.468Z,30.20
2018-08-04T07:45:24.505Z,30.30
2018-08-04T07:48:05.311Z,30.70
2018-08-04T07:50:45.874Z,31.20
2018-08-04T07:53:26.402Z,31.10
2018-08-04T07:56:07.645Z,31.20
2018-08-04T07:58:48.585Z,31.80
2018-08-04T08:01:29.489Z,32.80
2018-08-04T08:04:09.953Z,34.10
2018-08-04T08:06:51.445Z,35.70
2018-08-04T08:09:32.285Z,37.60
2018-08-04T08:12:12.741Z,38.90
2018-08-04T08:14:53.569Z,39.30
2018-08-04T08:17:34.459Z,40.20
2018-08-04T08:20:15.348Z,40.30
2018-08-04T08:22:55.941Z,40.90
2018-08-04T08:25:36.784Z,41.00
2018-08-04T08:28:17.640Z,40.60
2018-08-04T08:30:58.413Z,40.50
2018-08-04T08:33:40.633Z,41.40
2018-08-04T08:36:21.608Z,41.90
2018-08-04T08:39:02.350Z,42.10
2018-08-04T08:41:43.569Z,41.90
2018-08-04T08:44:24.719Z,42.70
2018-08-04T08:47:05.700Z,43.00
2018-08-04T08:49:46.253Z,42.30
2018-08-04T08:52:26.917Z,42.00
2018-08-04T08:55:08.385Z,41.90
2018-08-04T08:57:49.226Z,42.50
2018-08-04T09:00:29.974Z,42.80
2018-08-04T09:03:10.894Z,43.90
2018-08-04T09:05:51.656Z,44.10
2018-08-04T09:08:32.181Z,43.90
2018-08-04T09:11:13.190Z,44.00
2018-08-04T09:13:54.306Z,44.70
2018-08-04T09:16:35.205Z,44.10
2018-08-04T09:19:16.053Z,43.70
2018-08-04T09:21:57.006Z,43.30
2018-08-04T09:24:37.896Z,43.30
2018-08-04T09:27:19.553Z,43.60
2018-08-04T09:29:59.977Z,43.80
2018-08-04T09:32:41.354Z,43.20
2018-08-04T09:35:22.239Z,43.60
2018-08-04T09:38:02.829Z,43.60
2018-08-04T09:40:43.598Z,43.10
2018-08-04T09:43:24.173Z,42.00
2018-08-04T09:46:05.445Z,42.10
2018-08-04T09:48:46.140Z,42.40
2018-08-04T09:51:26.881Z,43.20
2018-08-04T09:54:08.030Z,44.10
2018-08-04T09:56:49.301Z,44.40
2018-08-04T09:59:30.372Z,45.10
2018-08-04T10:02:12.257Z,44.40
2018-08-04T10:04:53.302Z,43.00
2018-08-04T10:07:33.856Z,42.20
2018-08-04T10:10:14.768Z,42.50
2018-08-04T10:12:55.566Z,42.20
2018-08-04T10:15:36.011Z,41.60
2018-08-04T10:18:16.539Z,40.90
2018-08-04T10:20:57.373Z,41.20
2018-08-04T10:23:38.128Z,40.80
2018-08-04T10:26:19.392Z,41.20
2018-08-04T10:29:00.788Z,41.20
2018-08-04T10:31:41.497Z,41.40
2018-08-04T10:34:22.288Z,42.10
2018-08-04T10:37:03.341Z,42.30
2018-08-04T10:39:44.112Z,41.30
2018-08-04T10:42:24.995Z,39.70
2018-08-04T10:45:06.749Z,38.60
2018-08-04T10:47:48.113Z,37.40
2018-08-04T10:50:29.026Z,36.40
2018-08-04T10:53:10.338Z,36.00
2018-08-04T10:55:50.834Z,36.00
2018-08-04T10:58:32.074Z,36.00
2018-08-04T11:01:13.073Z,36.20
2018-08-04T11:03:54.333Z,37.00
2018-08-04T11:06:35.769Z,38.40
2018-08-04T11:09:16.521Z,39.40
2018-08-04T11:11:56.980Z,40.70
2018-08-04T11:14:37.416Z,41.00
2018-08-04T11:17:18.198Z,40.70
2018-08-04T11:19:58.979Z,39.80
2018-08-04T11:22:40.585Z,39.00
2018-08-04T11:25:21.426Z,38.30
2018-08-04T11:28:02.590Z,37.60
2018-08-04T11:30:43.811Z,37.30
2018-08-04T11:33:25.132Z,37.10
2018-08-04T11:36:05.968Z,36.90
2018-08-04T11:38:46.691Z,36.70
2018-08-04T11:41:27.517Z,36.00
2018-08-04T11:44:08.685Z,35.10
2018-08-04T11:46:50.076Z,34.10
2018-08-04T11:49:30.674Z,33.90
2018-08-04T11:52:11.804Z,34.40
2018-08-04T11:54:52.224Z,34.60
2018-08-04T11:57:33.049Z,34.30
2018-08-04T12:00:14.774Z,34.50
2018-08-04T12:02:55.496Z,35.20
2018-08-04T12:05:36.347Z,35.90
2018-08-04T12:08:17.113Z,37.20
2018-08-04T12:10:57.554Z,37.50
2018-08-04T12:13:38.653Z,38.20
2018-08-04T12:16:19.852Z,38.00
2018-08-04T12:19:01.038Z,39.10
2018-08-04T12:21:42.696Z,38.30
2018-08-04T12:24:23.179Z,38.20
2018-08-04T12:27:03.665Z,39.10
2018-08-04T12:29:44.242Z,39.70
2018-08-04T12:32:25.033Z,39.10
2018-08-04T12:35:07.071Z,38.90
2018-08-04T12:37:48.097Z,40.10
2018-08-04T12:40:28.977Z,39.00
2018-08-04T12:43:10.050Z,38.80
2018-08-04T12:45:50.951Z,39.20
2018-08-04T12:48:31.379Z,39.70
2018-08-04T12:51:12.285Z,39.80
2018-08-04T12:53:53.140Z,39.40
2018-08-04T12:56:34.161Z,39.00
2018-08-04T12:59:15.378Z,38.90
2018-08-04T13:01:56.301Z,39.20
2018-08-04T13:04:36.825Z,40.20
2018-08-04T13:07:17.509Z,40.20
2018-08-04T13:09:57.940Z,40.30
2018-08-04T13:12:38.649Z,40.90
2018-08-04T13:15:19.670Z,41.10
2018-08-04T13:18:00.609Z,40.20
2018-08-04T13:20:41.358Z,38.80
2018-08-04T13:23:22.432Z,38.90
2018-08-04T13:26:03.467Z,39.70
2018-08-04T13:28:44.401Z,40.20
2018-08-04T13:31:25.192Z,40.20
2018-08-04T13:34:05.948Z,39.70
2018-08-04T13:36:46.741Z,39.90
2018-08-04T13:39:27.600Z,39.40
2018-08-04T13:42:08.831Z,39.90
2018-08-04T13:47:30.390Z,39.20
2018-08-04T13:50:11.062Z,38.90
2018-08-04T13:52:52.130Z,38.60
2018-08-04T13:55:32.932Z,38.10
2018-08-04T13:58:14.169Z,37.70
2018-08-04T14:00:55.048Z,37.30
2018-08-04T14:03:36.211Z,37.00
2018-08-04T14:06:17.475Z,37.40
2018-08-04T14:08:58.734Z,37.60
2018-08-04T14:11:39.436Z,37.40
2018-08-04T14:14:21.297Z,37.10
2018-08-04T14:19:42.270Z,36.70
2018-08-04T14:22:23.386Z,37.40
2018-08-04T14:27:52.857Z,37.70
2018-08-04T14:30:33.199Z,37.20
2018-08-04T14:33:13.648Z,37.40
2018-08-04T14:35:54.631Z,37.60
2018-08-04T14:38:37.786Z,37.00
2018-08-04T14:41:18.656Z,37.00
2018-08-04T14:43:59.310Z,36.20
2018-08-04T14:46:40.269Z,35.90
2018-08-04T14:49:21.333Z,35.60
2018-08-04T14:52:13.478Z,35.00
2018-08-04T14:54:55.772Z,34.90
2018-08-04T14:57:36.785Z,34.90
2018-08-04T15:00:17.591Z,34.70
2018-08-04T15:02:58.622Z,34.50
2018-08-04T15:05:39.468Z,34.00
2018-08-04T15:08:21.229Z,33.50
2018-08-04T15:11:01.701Z,33.00
2018-08-04T15:13:42.753Z,32.80
2018-08-04T15:16:23.638Z,32.90
2018-08-04T15:19:04.300Z,32.70
2018-08-04T15:21:45.021Z,32.60
2018-08-04T15:24:25.903Z,32.50
2018-08-04T15:27:06.457Z,32.50
2018-08-04T15:29:47.243Z,32.60
2018-08-04T15:32:27.856Z,32.70
2018-08-04T15:35:08.421Z,32.80
2018-08-04T15:37:48.982Z,32.80
2018-08-04T15:40:29.797Z,32.70
2018-08-04T15:43:11.575Z,32.50
2018-08-04T15:45:52.578Z,32.30
2018-08-04T15:48:33.082Z,32.30
2018-08-04T15:51:14.142Z,32.10
2018-08-04T15:53:55.139Z,31.90
2018-08-04T15:56:37.029Z,31.50
2018-08-04T15:59:18.450Z,31.20
2018-08-04T16:01:59.215Z,30.80
2018-08-04T16:04:40.394Z,30.60
2018-08-04T16:07:21.375Z,30.40
2018-08-04T16:10:02.463Z,30.10
2018-08-04T16:12:43.068Z,29.90
2018-08-04T16:15:24.118Z,29.50
2018-08-04T16:18:05.205Z,29.50
2018-08-04T16:20:46.282Z,29.80
2018-08-04T16:23:27.193Z,30.20
2018-08-04T16:26:08.060Z,30.60
2018-08-04T16:28:48.638Z,30.80
2018-08-04T16:31:29.784Z,30.70
2018-08-04T16:34:10.643Z,30.80
2018-08-04T16:36:51.217Z,30.60
2018-08-04T16:39:33.042Z,30.20
2018-08-04T16:42:13.845Z,29.90
2018-08-04T16:44:54.745Z,29.70
2018-08-04T16:47:35.400Z,29.60
2018-08-04T16:50:16.508Z,29.60
2018-08-04T16:52:57.552Z,29.40
2018-08-04T16:55:38.266Z,29.40
2018-08-04T16:58:18.729Z,29.40
2018-08-04T17:01:00.268Z,29.30
2018-08-04T17:03:41.169Z,30.90
2018-08-04T17:06:22.318Z,29.40
2018-08-04T17:09:03.682Z,29.40
2018-08-04T17:11:44.432Z,29.60
2018-08-04T17:14:25.135Z,29.60
2018-08-04T17:19:46.203Z,29.50
2018-08-04T17:22:26.725Z,29.50
2018-08-04T17:25:07.474Z,29.50
2018-08-04T17:27:48.585Z,29.40
2018-08-04T17:30:29.025Z,29.30
2018-08-04T17:33:09.533Z,29.20
2018-08-04T17:35:50.273Z,29.10
2018-08-04T17:38:31.272Z,29.00
2018-08-04T17:41:13.872Z,28.80
2018-08-04T17:43:54.730Z,28.80
2018-08-04T17:46:35.172Z,28.60
2018-08-04T17:49:15.881Z,28.50
2018-08-04T17:51:56.659Z,28.30
2018-08-04T17:54:38.319Z,28.40
2018-08-04T17:57:19.741Z,28.40
2018-08-04T18:00:00.578Z,28.30
2018-08-04T18:02:42.145Z,28.20
2018-08-04T18:05:23.039Z,28.20
2018-08-04T18:08:03.646Z,28.20
2018-08-04T18:10:44.588Z,28.20
2018-08-04T18:13:25.930Z,28.20
2018-08-04T18:16:07.525Z,28.10
2018-08-04T18:18:49.327Z,27.90
2018-08-04T18:21:31.808Z,27.70
2018-08-04T18:24:12.264Z,27.70
2018-08-04T18:26:53.626Z,27.70
2018-08-04T18:29:34.296Z,27.70
2018-08-04T18:32:15.292Z,27.60
2018-08-04T18:34:56.265Z,27.40
2018-08-04T18:37:37.028Z,27.40
2018-08-04T18:40:17.915Z,27.30
2018-08-04T18:42:59.175Z,27.30
2018-08-04T18:45:40.159Z,27.20
2018-08-04T18:48:20.958Z,27.20
2018-08-04T18:51:01.957Z,27.10
2018-08-04T18:53:44.008Z,27.00
2018-08-04T18:56:24.942Z,27.00
2018-08-04T18:59:06.152Z,27.10
2018-08-04T19:01:47.260Z,27.10
2018-08-04T19:04:28.201Z,27.00
2018-08-04T19:07:08.643Z,26.90
2018-08-04T19:09:49.627Z,26.80
2018-08-04T19:12:30.455Z,26.70
2018-08-04T19:15:12.011Z,26.60
2018-08-04T19:17:52.489Z,26.70
2018-08-04T19:20:33.222Z,26.60
2018-08-04T19:23:13.926Z,26.40
2018-08-04T19:25:55.146Z,26.30
2018-08-04T19:28:35.702Z,26.20
2018-08-04T19:31:16.815Z,26.20
2018-08-04T19:33:58.537Z,26.10
2018-08-04T19:36:39.651Z,26.20
2018-08-04T19:39:21.317Z,26.10
2018-08-04T19:42:02.566Z,26.10
2018-08-04T19:44:43.122Z,26.20
2018-08-04T19:47:24.287Z,26.20
2018-08-04T19:50:04.986Z,26.20
2018-08-04T19:52:45.757Z,26.10
2018-08-04T19:55:26.324Z,26.00
2018-08-04T19:58:07.074Z,25.90
2018-08-04T20:00:48.126Z,25.80
2018-08-04T20:03:28.777Z,25.80
2018-08-04T20:06:09.792Z,25.70
2018-08-04T20:08:50.661Z,25.60
2018-08-04T20:11:31.261Z,25.50
2018-08-04T20:14:12.052Z,25.40
2018-08-04T20:16:52.643Z,25.30
2018-08-04T20:19:33.370Z,25.30
2018-08-04T20:22:15.945Z,25.30
2018-08-04T20:24:56.617Z,25.30
2018-08-04T20:27:37.797Z,25.20
2018-08-04T20:30:18.814Z,25.10
2018-08-04T20:33:00.236Z,25.10
2018-08-04T20:35:41.534Z,25.10
2018-08-04T20:38:24.944Z,25.10
2018-08-04T20:41:06.307Z,25.10
2018-08-04T20:43:47.820Z,25.00
2018-08-04T20:46:28.961Z,24.90
2018-08-04T20:49:10.446Z,24.90
2018-08-04T20:51:51.189Z,24.90
2018-08-04T20:54:32.079Z,24.80
2018-08-04T20:57:13.033Z,24.70
2018-08-04T20:59:54.002Z,24.70
2018-08-04T21:02:35.154Z,24.70
2018-08-04T21:05:16.482Z,24.80
2018-08-04T21:07:57.430Z,24.80
2018-08-04T21:10:38.333Z,24.70
2018-08-04T21:13:18.905Z,24.70
2018-08-04T21:15:59.734Z,24.60
2018-08-04T21:18:40.985Z,24.60
2018-08-04T21:21:21.944Z,24.70
2018-08-04T21:24:02.828Z,24.60
2018-08-04T21:26:43.789Z,24.60
2018-08-04T21:29:25.159Z,24.50
2018-08-04T21:34:46.826Z,24.50
2018-08-04T21:37:27.621Z,24.50
2018-08-04T21:40:08.732Z,24.40
2018-08-04T21:42:49.704Z,24.40
2018-08-04T21:45:30.719Z,24.40
2018-08-04T21:48:11.767Z,24.40
2018-08-04T21:50:52.727Z,24.20
2018-08-04T21:53:33.974Z,24.10
2018-08-04T21:56:14.754Z,24.10
2018-08-04T21:58:55.350Z,24.10
2018-08-04T22:01:35.992Z,24.00
2018-08-04T22:04:17.507Z,24.00
2018-08-04T22:10:17.859Z,24.00
2018-08-04T22:12:58.864Z,24.10
2018-08-04T22:15:39.968Z,24.00
2018-08-04T22:18:20.866Z,24.00
2018-08-04T22:21:05.432Z,23.90
2018-08-04T22:23:46.944Z,23.90
2018-08-04T22:26:28.737Z,23.90
2018-08-04T22:31:49.929Z,23.90
2018-08-04T22:34:30.915Z,23.90
2018-08-04T22:37:11.581Z,24.00
2018-08-04T22:39:53.509Z,24.00
2018-08-04T22:42:34.436Z,24.10
2018-08-04T22:46:08.983Z,24.00
2018-08-04T22:48:51.204Z,23.90
2018-08-04T22:51:32.263Z,24.00
2018-08-04T22:54:13.941Z,24.00
2018-08-04T22:56:54.331Z,24.10
2018-08-04T22:59:36.035Z,23.90
2018-08-04T23:02:17.078Z,23.90
2018-08-04T23:04:57.905Z,23.90
2018-08-04T23:07:38.685Z,23.80
2018-08-04T23:10:19.506Z,23.80
2018-08-04T23:13:00.500Z,23.80
2018-08-04T23:15:41.554Z,23.90
2018-08-04T23:18:22.734Z,23.80
2018-08-04T23:21:03.569Z,23.80
2018-08-04T23:23:44.515Z,23.80
2018-08-04T23:26:26.267Z,23.80
2018-08-04T23:29:07.422Z,23.70
2018-08-04T23:31:48.235Z,23.70
2018-08-04T23:37:10.683Z,23.80
2018-08-04T23:39:51.666Z,23.90
2018-08-04T23:42:33.030Z,24.00
2018-08-04T23:45:13.678Z,24.00
2018-08-04T23:47:54.640Z,24.10
2018-08-04T23:50:37.695Z,24.00
2018-08-04T23:53:19.465Z,23.80
2018-08-04T23:56:00.015Z,23.80
2018-08-04T23:58:40.856Z,23.70
